sensor_id;sensor_type;location;lat;lon;timestamp;P1;durP1;ratioP1;P2;durP2;ratioP2
39308;SDS011;26019;47.510;19.122;2023-01-24T00:07:56;20.17;;;12.77;;
39308;SDS011;26019;47.510;19.122;2023-01-24T00:28:28;27.88;;;17.00;;
39308;SDS011;26019;47.510;19.122;2023-01-24T00:38:34;27.05;;;15.82;;
39308;SDS011;26019;47.510;19.122;2023-01-24T00:48:36;34.65;;;15.63;;
39308;SDS011;26019;47.510;19.122;2023-01-24T00:58:38;30.65;;;16.33;;
39308;SDS011;26019;47.510;19.122;2023-01-24T01:08:40;27.08;;;16.42;;
39308;SDS011;26019;47.510;19.122;2023-01-24T01:18:43;27.10;;;15.77;;
39308;SDS011;26019;47.510;19.122;2023-01-24T01:28:52;23.85;;;13.60;;
39308;SDS011;26019;47.510;19.122;2023-01-24T01:39:58;25.40;;;12.13;;
39308;SDS011;26019;47.510;19.122;2023-01-24T01:50:07;18.17;;;10.98;;
39308;SDS011;26019;47.510;19.122;2023-01-24T02:00:22;21.27;;;13.05;;
39308;SDS011;26019;47.510;19.122;2023-01-24T02:10:26;21.10;;;11.77;;
39308;SDS011;26019;47.510;19.122;2023-01-24T02:31:02;19.73;;;12.13;;
39308;SDS011;26019;47.510;19.122;2023-01-24T02:41:06;17.35;;;10.82;;
39308;SDS011;26019;47.510;19.122;2023-01-24T02:51:09;16.52;;;9.95;;
39308;SDS011;26019;47.510;19.122;2023-01-24T03:01:33;16.23;;;11.55;;
39308;SDS011;26019;47.510;19.122;2023-01-24T03:11:36;16.23;;;10.25;;
39308;SDS011;26019;47.510;19.122;2023-01-24T03:21:40;15.48;;;9.45;;
39308;SDS011;26019;47.510;19.122;2023-01-24T03:42:00;18.50;;;10.75;;
39308;SDS011;26019;47.510;19.122;2023-01-24T03:52:02;15.73;;;10.15;;
39308;SDS011;26019;47.510;19.122;2023-01-24T04:02:22;19.80;;;10.55;;
39308;SDS011;26019;47.510;19.122;2023-01-24T04:22:35;19.17;;;11.32;;
39308;SDS011;26019;47.510;19.122;2023-01-24T04:32:37;18.15;;;10.73;;
39308;SDS011;26019;47.510;19.122;2023-01-24T04:42:40;15.82;;;10.18;;
39308;SDS011;26019;47.510;19.122;2023-01-24T05:02:46;19.52;;;10.50;;
39308;SDS011;26019;47.510;19.122;2023-01-24T05:12:48;18.48;;;10.65;;
39308;SDS011;26019;47.510;19.122;2023-01-24T05:22:50;21.38;;;11.40;;
39308;SDS011;26019;47.510;19.122;2023-01-24T05:32:56;21.45;;;11.93;;
39308;SDS011;26019;47.510;19.122;2023-01-24T05:43:00;25.48;;;12.65;;
39308;SDS011;26019;47.510;19.122;2023-01-24T05:53:03;20.35;;;11.63;;
39308;SDS011;26019;47.510;19.122;2023-01-24T06:03:05;25.38;;;12.90;;
39308;SDS011;26019;47.510;19.122;2023-01-24T06:13:08;32.72;;;16.02;;
39308;SDS011;26019;47.510;19.122;2023-01-24T06:23:17;29.33;;;16.77;;
39308;SDS011;26019;47.510;19.122;2023-01-24T06:33:40;28.70;;;16.70;;
39308;SDS011;26019;47.510;19.122;2023-01-24T06:44:02;28.25;;;17.35;;
39308;SDS011;26019;47.510;19.122;2023-01-24T06:54:07;35.80;;;19.52;;
39308;SDS011;26019;47.510;19.122;2023-01-24T07:14:15;43.08;;;22.88;;
39308;SDS011;26019;47.510;19.122;2023-01-24T07:24:18;37.72;;;23.05;;
39308;SDS011;26019;47.510;19.122;2023-01-24T07:34:22;39.75;;;21.90;;
39308;SDS011;26019;47.510;19.122;2023-01-24T07:44:25;36.70;;;20.85;;
39308;SDS011;26019;47.510;19.122;2023-01-24T07:54:28;33.28;;;18.33;;
39308;SDS011;26019;47.510;19.122;2023-01-24T08:04:30;30.70;;;16.45;;
39308;SDS011;26019;47.510;19.122;2023-01-24T08:14:32;30.45;;;16.33;;
39308;SDS011;26019;47.510;19.122;2023-01-24T08:24:36;28.65;;;14.35;;
39308;SDS011;26019;47.510;19.122;2023-01-24T08:34:41;20.90;;;13.70;;
39308;SDS011;26019;47.510;19.122;2023-01-24T08:44:43;29.13;;;14.23;;
39308;SDS011;26019;47.510;19.122;2023-01-24T08:54:44;24.92;;;12.50;;
39308;SDS011;26019;47.510;19.122;2023-01-24T09:04:50;17.52;;;11.00;;
39308;SDS011;26019;47.510;19.122;2023-01-24T09:14:52;19.30;;;10.35;;
39308;SDS011;26019;47.510;19.122;2023-01-24T09:25:22;14.52;;;9.65;;
39308;SDS011;26019;47.510;19.122;2023-01-24T09:35:34;16.55;;;10.98;;
39308;SDS011;26019;47.510;19.122;2023-01-24T09:45:42;22.08;;;11.07;;
39308;SDS011;26019;47.510;19.122;2023-01-24T09:55:51;19.38;;;10.45;;
39308;SDS011;26019;47.510;19.122;2023-01-24T10:05:55;16.00;;;10.90;;
39308;SDS011;26019;47.510;19.122;2023-01-24T10:26:22;16.05;;;9.73;;
39308;SDS011;26019;47.510;19.122;2023-01-24T10:36:39;19.50;;;9.65;;
39308;SDS011;26019;47.510;19.122;2023-01-24T11:17:44;10.07;;;6.97;;
39308;SDS011;26019;47.510;19.122;2023-01-24T11:27:46;15.93;;;8.82;;
39308;SDS011;26019;47.510;19.122;2023-01-24T12:10:11;14.60;;;8.88;;
39308;SDS011;26019;47.510;19.122;2023-01-24T12:30:36;19.63;;;8.70;;
39308;SDS011;26019;47.510;19.122;2023-01-24T12:40:46;12.85;;;7.45;;
39308;SDS011;26019;47.510;19.122;2023-01-24T13:12:02;16.58;;;8.38;;
39308;SDS011;26019;47.510;19.122;2023-01-24T13:32:32;21.00;;;8.63;;
39308;SDS011;26019;47.510;19.122;2023-01-24T13:42:41;23.48;;;9.57;;
39308;SDS011;26019;47.510;19.122;2023-01-24T13:52:45;27.13;;;12.33;;
39308;SDS011;26019;47.510;19.122;2023-01-24T14:23:22;28.35;;;17.50;;
39308;SDS011;26019;47.510;19.122;2023-01-24T14:44:19;33.85;;;17.05;;
39308;SDS011;26019;47.510;19.122;2023-01-24T15:22:17;38.90;;;19.42;;
39308;SDS011;26019;47.510;19.122;2023-01-24T15:51:20;37.40;;;19.02;;
39308;SDS011;26019;47.510;19.122;2023-01-24T16:01:31;32.75;;;18.85;;
39308;SDS011;26019;47.510;19.122;2023-01-24T16:11:34;49.17;;;23.70;;
39308;SDS011;26019;47.510;19.122;2023-01-24T16:31:50;53.55;;;31.52;;
39308;SDS011;26019;47.510;19.122;2023-01-24T16:41:53;51.45;;;27.02;;
39308;SDS011;26019;47.510;19.122;2023-01-24T17:02:19;50.85;;;27.95;;
39308;SDS011;26019;47.510;19.122;2023-01-24T17:12:22;50.55;;;27.38;;
39308;SDS011;26019;47.510;19.122;2023-01-24T17:22:26;58.05;;;30.52;;
39308;SDS011;26019;47.510;19.122;2023-01-24T17:32:31;49.33;;;28.73;;
39308;SDS011;26019;47.510;19.122;2023-01-24T17:42:34;45.38;;;27.33;;
39308;SDS011;26019;47.510;19.122;2023-01-24T18:02:44;55.80;;;31.13;;
39308;SDS011;26019;47.510;19.122;2023-01-24T18:12:54;60.70;;;30.27;;
39308;SDS011;26019;47.510;19.122;2023-01-24T18:22:58;50.40;;;29.20;;
39308;SDS011;26019;47.510;19.122;2023-01-24T18:43:12;53.40;;;30.95;;
39308;SDS011;26019;47.510;19.122;2023-01-24T18:53:16;56.58;;;30.10;;
39308;SDS011;26019;47.510;19.122;2023-01-24T19:03:35;60.83;;;30.33;;
39308;SDS011;26019;47.510;19.122;2023-01-24T19:25:37;59.90;;;33.50;;
39308;SDS011;26019;47.510;19.122;2023-01-24T19:35:39;72.88;;;33.13;;
39308;SDS011;26019;47.510;19.122;2023-01-24T19:45:42;70.22;;;35.95;;
39308;SDS011;26019;47.510;19.122;2023-01-24T20:06:08;70.50;;;39.45;;
39308;SDS011;26019;47.510;19.122;2023-01-24T20:26:22;76.72;;;43.50;;
39308;SDS011;26019;47.510;19.122;2023-01-24T20:36:27;92.47;;;44.08;;
39308;SDS011;26019;47.510;19.122;2023-01-24T20:46:32;78.75;;;42.88;;
39308;SDS011;26019;47.510;19.122;2023-01-24T20:56:36;73.70;;;39.67;;
39308;SDS011;26019;47.510;19.122;2023-01-24T21:06:41;79.05;;;43.53;;
39308;SDS011;26019;47.510;19.122;2023-01-24T21:26:44;95.57;;;47.95;;
39308;SDS011;26019;47.510;19.122;2023-01-24T21:36:49;83.32;;;42.92;;
39308;SDS011;26019;47.510;19.122;2023-01-24T21:46:52;82.70;;;44.63;;
39308;SDS011;26019;47.510;19.122;2023-01-24T21:56:55;81.65;;;42.15;;
39308;SDS011;26019;47.510;19.122;2023-01-24T22:07:31;86.80;;;44.22;;
39308;SDS011;26019;47.510;19.122;2023-01-24T22:17:39;87.25;;;42.90;;
39308;SDS011;26019;47.510;19.122;2023-01-24T22:27:42;82.75;;;41.42;;
39308;SDS011;26019;47.510;19.122;2023-01-24T22:37:51;86.17;;;44.03;;
39308;SDS011;26019;47.510;19.122;2023-01-24T22:47:57;87.88;;;43.20;;
39308;SDS011;26019;47.510;19.122;2023-01-24T23:01:04;97.45;;;46.63;;
39308;SDS011;26019;47.510;19.122;2023-01-24T23:11:10;99.35;;;51.00;;
39308;SDS011;26019;47.510;19.122;2023-01-24T23:21:14;100.85;;;50.75;;
39308;SDS011;26019;47.510;19.122;2023-01-24T23:31:31;103.80;;;52.22;;
39308;SDS011;26019;47.510;19.122;2023-01-24T23:41:42;100.95;;;50.15;;
39308;SDS011;26019;47.510;19.122;2023-01-24T23:51:45;104.20;;;54.28;;
